Time;durP1;ratioP1;P1;durP2;ratioP2;P2;SDS_P1;SDS_P2;PMS_P1;PMS_P2;Temp;Humidity;BMP_temperature;BMP_pressure;BME280_temperature;BME280_humidity;BME280_pressure;Samples;Min_cycle;Max_cycle;Signal;HPM_P1;HPM_P2
2024/04/09 00:01:42;;;;;;;19.63;9.43;;;17.40;99.90;;;;;;5286897;27;20465;-89
2024/04/09 00:04:09;;;;;;;12.37;9.23;;;17.50;99.90;;;;;;5286536;27;20469;-88
2024/04/09 00:06:37;;;;;;;13.60;9.47;;;17.50;99.90;;;;;;5286128;27;20473;-88
2024/04/09 00:09:05;;;;;;;13.43;9.30;;;17.40;99.90;;;;;;5286059;27;20453;-85
2024/04/09 00:11:35;;;;;;;14.50;9.50;;;17.40;99.90;;;;;;5286750;27;21081;-84
2024/04/09 00:14:04;;;;;;;15.43;10.57;;;17.40;99.90;;;;;;5287494;27;20476;-84
2024/04/09 00:16:33;;;;;;;12.47;10.57;;;17.30;99.90;;;;;;5295164;27;20611;-83
2024/04/09 00:19:01;;;;;;;17.23;10.40;;;17.30;99.90;;;;;;5284816;27;20550;-84
2024/04/09 00:21:31;;;;;;;12.47;9.80;;;17.30;99.90;;;;;;5285228;27;20476;-84
2024/04/09 00:23:57;;;;;;;14.87;10.87;;;17.30;99.90;;;;;;5285372;27;20472;-84
2024/04/09 00:26:28;;;;;;;12.87;10.43;;;17.30;99.90;;;;;;5287024;27;20465;-83
2024/04/09 00:28:54;;;;;;;13.83;8.73;;;17.20;99.90;;;;;;5291166;27;20798;-85
2024/04/09 00:31:24;;;;;;;10.10;8.87;;;17.30;99.90;;;;;;5286149;27;20463;-85
2024/04/09 00:33:51;;;;;;;88.97;51.77;;;17.30;99.90;;;;;;5284905;27;20766;-85
2024/04/09 00:36:22;;;;;;;18.10;13.97;;;17.20;99.90;;;;;;5296425;27;20440;-85
2024/04/09 00:38:48;;;;;;;15.37;13.77;;;17.20;99.90;;;;;;5288465;27;20464;-85
2024/04/09 00:41:16;;;;;;;18.43;10.60;;;17.20;99.90;;;;;;5287260;27;20516;-85
2024/04/09 00:43:42;;;;;;;22.80;13.37;;;17.20;99.90;;;;;;5285754;27;20488;-85
2024/04/09 00:46:13;;;;;;;16.77;11.63;;;17.20;99.90;;;;;;5284631;27;20453;-85
2024/04/09 00:48:41;;;;;;;17.33;12.43;;;17.10;99.90;;;;;;5285484;27;20513;-85
2024/04/09 00:51:12;;;;;;;14.00;11.10;;;17.10;99.90;;;;;;5284764;27;20483;-85
2024/04/09 00:53:41;;;;;;;14.77;10.17;;;17.10;99.90;;;;;;5284636;27;20515;-85
2024/04/09 00:56:11;;;;;;;13.90;10.23;;;17.10;99.90;;;;;;5285510;27;20580;-85
2024/04/09 00:58:38;;;;;;;14.73;10.80;;;17.10;99.90;;;;;;5296251;27;20537;-84
2024/04/09 01:01:07;;;;;;;15.33;10.23;;;17.10;99.90;;;;;;5297077;27;20536;-82
2024/04/09 01:03:33;;;;;;;12.90;10.00;;;17.10;99.90;;;;;;5298404;27;20472;-81
2024/04/09 01:06:02;;;;;;;12.97;9.27;;;17.00;99.90;;;;;;5297678;26;20538;-81
2024/04/09 01:08:28;;;;;;;13.70;9.10;;;17.00;99.90;;;;;;5304177;26;20541;-80
2024/04/09 01:10:59;;;;;;;15.60;10.07;;;17.00;99.90;;;;;;5302582;26;20485;-84
2024/04/09 01:13:25;;;;;;;15.93;9.97;;;17.00;1.00;;;;;;5295159;26;20252;-82
2024/04/09 01:15:53;;;;;;;13.63;9.53;;;17.00;1.00;;;;;;5288628;27;20456;-82
2024/04/09 01:18:19;;;;;;;11.20;9.07;;;16.90;99.90;;;;;;5289386;27;20449;-83
2024/04/09 01:20:47;;;;;;;16.03;9.57;;;17.00;99.90;;;;;;5296728;27;20548;-82
2024/04/09 01:23:16;;;;;;;17.03;10.80;;;16.90;99.90;;;;;;5298129;27;20232;-82
2024/04/09 01:25:45;;;;;;;12.50;10.00;;;16.90;99.90;;;;;;5298191;27;20531;-85
2024/04/09 01:28:11;;;;;;;15.33;9.70;;;17.00;99.90;;;;;;5286953;27;20463;-85
2024/04/09 01:30:40;;;;;;;13.57;9.60;;;16.90;99.90;;;;;;5284700;27;20804;-85
2024/04/09 01:33:06;;;;;;;12.00;8.30;;;16.90;99.90;;;;;;5284669;27;20476;-85
2024/04/09 01:35:35;;;;;;;12.37;8.53;;;16.90;99.90;;;;;;5284376;27;20445;-84
2024/04/09 01:38:01;;;;;;;11.13;10.10;;;16.80;99.90;;;;;;5285024;27;20448;-85
2024/04/09 01:40:32;;;;;;;18.90;13.60;;;16.80;99.90;;;;;;5284525;27;20981;-84
2024/04/09 01:42:58;;;;;;;16.53;10.93;;;16.80;99.90;;;;;;5284054;27;20492;-85
2024/04/09 01:45:26;;;;;;;10.17;9.17;;;16.90;99.90;;;;;;5285088;27;20452;-84
2024/04/09 01:47:52;;;;;;;11.90;9.30;;;16.80;99.90;;;;;;5284272;27;20472;-84
2024/04/09 01:50:21;;;;;;;9.70;8.70;;;16.80;99.90;;;;;;5291434;27;20861;-84
2024/04/09 01:52:48;;;;;;;11.63;8.67;;;16.80;99.90;;;;;;5293812;27;20524;-84
2024/04/09 01:55:17;;;;;;;10.63;9.13;;;16.70;99.90;;;;;;5301343;27;20443;-84
2024/04/09 01:57:46;;;;;;;10.17;8.70;;;16.80;99.90;;;;;;5301891;27;20439;-84
2024/04/09 02:00:19;;;;;;;17.00;11.03;;;16.80;99.90;;;;;;5301562;27;20512;-84
2024/04/09 02:02:47;;;;;;;14.93;9.63;;;16.70;99.90;;;;;;5299649;27;20476;-84
2024/04/09 02:05:18;;;;;;;15.20;8.20;;;16.70;99.90;;;;;;5287053;27;20479;-84
2024/04/09 02:07:44;;;;;;;15.67;9.23;;;16.70;99.90;;;;;;5284412;27;20460;-84
2024/04/09 02:10:13;;;;;;;15.17;9.37;;;16.70;99.90;;;;;;5284477;27;21128;-85
2024/04/09 02:12:39;;;;;;;9.27;8.33;;;16.70;99.90;;;;;;5283859;27;20476;-84
2024/04/09 02:15:12;;;;;;;10.50;9.20;;;16.70;99.90;;;;;;5284567;27;20513;-84
2024/04/09 02:17:38;;;;;;;10.33;9.23;;;16.70;99.90;;;;;;5297223;27;20460;-84
2024/04/09 02:20:09;;;;;;;14.03;8.33;;;16.70;99.90;;;;;;5286600;27;20572;-84
2024/04/09 02:22:36;;;;;;;11.93;9.20;;;16.70;99.90;;;;;;5283546;27;20476;-84
2024/04/09 02:25:05;;;;;;;12.63;10.03;;;16.70;99.90;;;;;;5284171;27;20973;-84
2024/04/09 02:27:31;;;;;;;11.27;9.80;;;16.70;99.90;;;;;;5283807;27;20503;-84
2024/04/09 02:29:59;;;;;;;10.83;9.63;;;16.60;1.00;;;;;;5284239;27;20456;-84
2024/04/09 02:32:28;;;;;;;14.50;9.73;;;16.60;1.00;;;;;;5283827;27;20893;-84
2024/04/09 02:34:56;;;;;;;11.67;10.57;;;16.40;1.00;;;;;;5283251;27;20517;-83
2024/04/09 02:37:22;;;;;;;12.03;10.67;;;16.30;1.00;;;;;;5283330;27;20929;-84
2024/04/09 02:39:53;;;;;;;13.30;9.87;;;16.30;1.00;;;;;;5283449;27;20467;-84
2024/04/09 02:42:20;;;;;;;12.57;10.13;;;16.20;1.00;;;;;;5282852;27;20528;-84
2024/04/09 02:44:49;;;;;;;12.57;9.97;;;16.20;1.00;;;;;;5283447;27;20448;-83
2024/04/09 02:47:15;;;;;;;14.03;10.30;;;16.20;1.00;;;;;;5282876;27;20489;-84
2024/04/09 02:49:46;;;;;;;11.47;10.00;;;16.20;1.00;;;;;;5283130;27;20532;-84
2024/04/09 02:52:12;;;;;;;13.83;11.47;;;16.10;1.00;;;;;;5283159;27;20472;-84
2024/04/09 02:54:42;;;;;;;13.37;10.90;;;16.20;6.60;;;;;;5283757;27;20503;-84
2024/04/09 02:57:07;;;;;;;17.47;14.03;;;16.10;1.00;;;;;;5284082;27;20535;-84
2024/04/09 02:59:36;;;;;;;14.93;9.80;;;16.20;1.00;;;;;;5283724;27;21097;-84
2024/04/09 03:02:02;;;;;;;14.30;9.83;;;16.10;1.00;;;;;;5283962;27;20448;-84
2024/04/09 03:04:31;;;;;;;13.40;10.40;;;16.10;1.00;;;;;;5283505;27;20460;-83
2024/04/09 03:06:59;;;;;;;11.30;10.23;;;16.00;67.10;;;;;;5283233;27;20529;-84
2024/04/09 03:09:28;;;;;;;12.53;10.47;;;16.00;99.90;;;;;;5284338;27;20440;-84
2024/04/09 03:11:54;;;;;;;11.63;10.43;;;16.00;99.90;;;;;;5291698;27;21004;-82
2024/04/09 03:14:23;;;;;;;14.67;10.17;;;16.00;99.90;;;;;;5296907;27;20533;-85
2024/04/09 03:16:49;;;;;;;15.37;11.60;;;16.00;99.90;;;;;;5291580;27;20452;-86
2024/04/09 03:19:18;;;;;;;12.97;11.57;;;16.00;99.90;;;;;;5288539;27;21088;-85
2024/04/09 03:21:44;;;;;;;17.60;11.30;;;16.00;99.90;;;;;;5300325;27;20508;-84
2024/04/09 03:24:15;;;;;;;13.03;11.03;;;16.00;99.90;;;;;;5301273;26;20589;-85
2024/04/09 03:26:41;;;;;;;15.20;10.80;;;15.90;99.90;;;;;;5295546;27;20553;-86
2024/04/09 03:29:10;;;;;;;14.90;10.77;;;16.00;99.90;;;;;;5292303;27;20456;-86
2024/04/09 03:31:36;;;;;;;13.20;10.70;;;16.00;99.90;;;;;;5287667;27;20485;-85
2024/04/09 03:34:04;;;;;;;20.00;10.40;;;15.90;99.90;;;;;;5286553;27;20540;-86
2024/04/09 03:36:30;;;;;;;18.73;12.47;;;15.90;99.90;;;;;;5281788;27;20529;-86
2024/04/09 03:38:59;;;;;;;12.37;11.20;;;15.90;99.90;;;;;;5281955;27;20456;-86
2024/04/09 03:41:30;;;;;;;15.00;10.73;;;15.90;99.90;;;;;;5282189;27;20460;-86
2024/04/09 03:44:02;;;;;;;15.20;10.40;;;15.80;99.90;;;;;;5283011;27;20575;-86
2024/04/09 03:46:28;;;;;;;16.00;11.10;;;15.80;99.90;;;;;;5285626;27;20570;-86
2024/04/09 03:48:56;;;;;;;14.63;10.70;;;15.80;1.00;;;;;;5283062;27;20862;-86
2024/04/09 03:51:22;;;;;;;12.30;10.97;;;15.80;99.90;;;;;;5283219;27;20436;-85
2024/04/09 03:53:51;;;;;;;14.40;11.30;;;15.90;99.90;;;;;;5284400;27;20519;-85
2024/04/09 03:56:17;;;;;;;16.10;11.90;;;15.90;99.90;;;;;;5283620;27;20508;-86
2024/04/09 03:58:50;;;;;;;12.10;11.00;;;15.80;99.90;;;;;;5291983;27;20448;-85
2024/04/09 04:01:16;;;;;;;14.07;10.23;;;15.80;99.90;;;;;;5287668;27;20467;-85
2024/04/09 04:03:48;;;;;;;15.63;11.60;;;15.80;99.90;;;;;;5281198;27;20516;-85
2024/04/09 04:06:14;;;;;;;15.53;11.43;;;15.80;99.90;;;;;;5283099;27;20855;-85
2024/04/09 04:08:45;;;;;;;12.47;11.20;;;15.90;1.00;;;;;;5282040;27;20508;-86
2024/04/09 04:11:12;;;;;;;12.43;11.30;;;15.80;1.00;;;;;;5283397;27;20522;-86
2024/04/09 04:13:41;;;;;;;12.87;10.87;;;15.80;99.90;;;;;;5283023;27;20546;-86
2024/04/09 04:16:12;;;;;;;15.73;10.87;;;15.90;99.90;;;;;;5282294;27;20464;-86
2024/04/09 04:18:42;;;;;;;15.33;11.27;;;15.80;1.00;;;;;;5282849;27;20471;-86
2024/04/09 04:21:09;;;;;;;14.37;11.17;;;15.80;1.00;;;;;;5285088;27;21031;-87
2024/04/09 04:23:38;;;;;;;13.40;11.23;;;15.80;1.00;;;;;;5284248;27;20539;-87
2024/04/09 04:26:06;;;;;;;15.07;11.73;;;15.80;1.00;;;;;;5283860;27;20460;-84
2024/04/09 04:28:36;;;;;;;12.40;11.20;;;15.90;1.00;;;;;;5283773;27;20479;-87
2024/04/09 04:31:05;;;;;;;16.00;14.33;;;15.80;1.00;;;;;;5283720;27;20511;-86
2024/04/09 04:33:38;;;;;;;13.20;12.00;;;15.80;1.00;;;;;;5284926;27;20480;-86
2024/04/09 04:36:04;;;;;;;12.57;10.83;;;15.80;1.00;;;;;;5285375;27;20460;-87
2024/04/09 04:38:33;;;;;;;12.07;10.87;;;15.70;1.00;;;;;;5289955;27;20499;-85
2024/04/09 04:40:59;;;;;;;11.27;10.20;;;15.80;1.00;;;;;;5301062;26;20510;-84
2024/04/09 04:43:28;;;;;;;14.30;10.67;;;15.80;1.00;;;;;;5300647;26;20512;-86
2024/04/09 04:45:55;;;;;;;13.73;11.57;;;15.80;1.00;;;;;;5301335;26;20495;-84
2024/04/09 04:48:24;;;;;;;12.27;11.10;;;15.90;1.00;;;;;;5300193;26;20556;-86
2024/04/09 04:50:52;;;;;;;16.23;11.40;;;15.90;1.00;;;;;;5285200;27;21015;-85
2024/04/09 04:53:22;;;;;;;12.97;10.17;;;16.00;99.90;;;;;;5285279;27;20472;-86
2024/04/09 04:55:49;;;;;;;16.37;11.90;;;16.10;99.90;;;;;;5294648;27;20463;-86
2024/04/09 04:58:19;;;;;;;16.37;11.50;;;16.10;99.90;;;;;;5303688;26;20464;-85
2024/04/09 05:00:45;;;;;;;12.67;11.47;;;16.10;99.90;;;;;;5302525;27;20451;-86
2024/04/09 05:03:14;;;;;;;12.93;9.97;;;16.20;99.90;;;;;;5286859;27;20468;-86
2024/04/09 05:05:41;;;;;;;13.10;11.37;;;16.20;99.90;;;;;;5288153;27;20504;-86
2024/04/09 05:08:12;;;;;;;17.87;10.87;;;16.30;99.90;;;;;;5287795;27;20460;-87
2024/04/09 05:10:38;;;;;;;12.60;10.60;;;16.20;99.90;;;;;;5286660;27;20464;-86
2024/04/09 05:13:07;;;;;;;15.80;11.03;;;16.20;99.90;;;;;;5287990;27;20565;-86
2024/04/09 05:15:33;;;;;;;13.13;10.20;;;16.20;99.90;;;;;;5287476;27;20490;-86
2024/04/09 05:18:01;;;;;;;12.23;9.30;;;16.20;99.90;;;;;;5291878;27;20455;-85
2024/04/09 05:20:28;;;;;;;11.13;10.03;;;16.10;99.90;;;;;;5300268;27;20492;-85
2024/04/09 05:22:57;;;;;;;12.47;9.93;;;16.20;99.90;;;;;;5300919;27;20472;-86
2024/04/09 05:25:27;;;;;;;12.67;11.47;;;16.20;99.90;;;;;;5291871;27;20460;-85
2024/04/09 05:27:56;;;;;;;10.87;9.70;;;16.20;99.90;;;;;;5290282;27;20456;-86
2024/04/09 05:30:22;;;;;;;12.47;11.20;;;16.10;99.90;;;;;;5293198;27;20467;-86
2024/04/09 05:32:50;;;;;;;14.73;10.30;;;16.20;99.90;;;;;;5291342;27;20484;-86
2024/04/09 05:35:18;;;;;;;13.07;9.80;;;16.30;99.90;;;;;;5292650;27;20511;-86
2024/04/09 05:37:47;;;;;;;10.80;9.80;;;16.30;99.90;;;;;;5293983;27;20508;-86
2024/04/09 05:40:13;;;;;;;14.63;9.77;;;16.40;99.90;;;;;;5298364;27;20521;-86
2024/04/09 05:42:46;;;;;;;11.30;10.20;;;16.50;99.90;;;;;;5295596;27;20852;-87
2024/04/09 05:45:14;;;;;;;11.63;10.30;;;16.50;99.90;;;;;;5289517;27;20468;-87
2024/04/09 05:47:42;;;;;;;12.37;10.60;;;16.60;99.90;;;;;;5285870;27;20576;-87
2024/04/09 05:50:09;;;;;;;18.33;10.73;;;16.50;45.50;;;;;;5287909;27;20424;-87
2024/04/09 05:52:37;;;;;;;12.27;9.73;;;16.60;1.00;;;;;;5286710;27;21111;-86
2024/04/09 05:55:05;;;;;;;10.77;9.67;;;16.70;1.00;;;;;;5287930;27;20460;-86
2024/04/09 05:57:36;;;;;;;11.00;9.90;;;16.80;1.00;;;;;;5287685;27;20595;-86
2024/04/09 06:00:07;;;;;;;41.30;34.37;;;16.90;1.00;;;;;;5287812;27;20472;-86
2024/04/09 06:02:36;;;;;;;12.30;9.93;;;17.20;1.00;;;;;;5287289;27;20468;-86
2024/04/09 06:05:03;;;;;;;10.13;9.13;;;17.00;1.00;;;;;;5287425;27;20460;-86
2024/04/09 06:07:31;;;;;;;15.43;10.13;;;17.00;1.00;;;;;;5288099;27;20592;-86
2024/04/09 06:09:58;;;;;;;17.87;10.70;;;17.10;1.00;;;;;;5286668;27;20501;-86
2024/04/09 06:12:26;;;;;;;19.23;9.23;;;17.10;1.00;;;;;;5286986;27;20484;-86
2024/04/09 06:14:53;;;;;;;12.30;9.70;;;17.10;1.00;;;;;;5289233;27;20793;-86
2024/04/09 06:17:24;;;;;;;11.87;9.50;;;17.20;1.00;;;;;;5300570;26;20468;-86
2024/04/09 06:19:53;;;;;;;12.20;9.13;;;17.30;1.00;;;;;;5296357;27;20413;-86
2024/04/09 06:22:22;;;;;;;20.23;14.83;;;17.30;1.00;;;;;;5295705;27;20472;-85
2024/04/09 06:24:48;;;;;;;14.57;11.80;;;17.40;1.00;;;;;;5297836;27;20472;-85
2024/04/09 06:27:16;;;;;;;10.57;9.57;;;17.40;1.00;;;;;;5299468;27;20516;-85
2024/04/09 06:29:42;;;;;;;10.97;9.50;;;17.50;1.00;;;;;;5300092;27;20456;-84
2024/04/09 06:32:12;;;;;;;12.33;9.90;;;;;;;;;;5301829;27;20446;-86
2024/04/09 06:34:42;;;;;;;14.20;9.30;;;;;;;;;;5297805;27;20462;-85
2024/04/09 06:37:10;;;;;;;10.70;9.70;;;17.50;1.00;;;;;;5298971;27;20508;-84
2024/04/09 06:39:37;;;;;;;17.20;11.10;;;17.60;1.00;;;;;;5300890;27;20504;-84
2024/04/09 06:42:05;;;;;;;12.53;10.17;;;17.60;1.00;;;;;;5299698;27;20473;-85
2024/04/09 06:44:32;;;;;;;12.23;11.03;;;17.60;1.00;;;;;;5295130;27;20506;-85
2024/04/09 06:47:01;;;;;;;15.67;10.70;;;17.70;1.00;;;;;;5297613;27;20538;-85
2024/04/09 06:49:27;;;;;;;24.93;10.80;;;17.70;1.00;;;;;;5296804;27;20458;-85
2024/04/09 06:51:59;;;;;;;11.80;9.87;;;17.80;1.00;;;;;;5298582;27;20543;-86
2024/04/09 06:54:25;;;;;;;17.13;11.50;;;17.90;1.00;;;;;;5289078;27;20539;-85
2024/04/09 06:56:54;;;;;;;9.83;8.97;;;17.90;1.00;;;;;;5286680;27;20580;-87
2024/04/09 06:59:22;;;;;;;11.10;10.00;;;18.00;1.00;;;;;;5286298;27;20513;-86
2024/04/09 07:01:51;;;;;;;11.47;10.37;;;18.10;1.00;;;;;;5287611;27;20462;-86
2024/04/09 07:04:17;;;;;;;13.00;10.33;;;18.10;1.00;;;;;;5287392;27;20514;-86
2024/04/09 07:06:49;;;;;;;10.83;9.07;;;18.20;1.00;;;;;;5287067;27;20467;-86
2024/04/09 07:09:18;;;;;;;11.60;8.83;;;18.30;1.00;;;;;;5286236;27;20474;-85
2024/04/09 07:11:47;;;;;;;10.43;9.43;;;18.40;1.00;;;;;;5286464;27;21108;-85
2024/04/09 07:14:13;;;;;;;12.60;9.00;;;18.50;99.90;;;;;;5287231;27;20518;-86
2024/04/09 07:16:44;;;;;;;9.83;8.70;;;;;;;;;;5284996;27;20577;-86
2024/04/09 07:19:12;;;;;;;9.60;8.60;;;18.60;1.00;;;;;;5286234;27;20458;-86
2024/04/09 07:21:40;;;;;;;12.60;9.27;;;18.50;1.00;;;;;;5289094;27;20519;-86
2024/04/09 07:24:07;;;;;;;8.97;8.07;;;18.70;1.00;;;;;;5290625;27;20578;-85
2024/04/09 07:26:38;;;;;;;9.97;8.30;;;18.80;99.90;;;;;;5295881;27;20590;-85
2024/04/09 07:29:04;;;;;;;21.10;8.67;;;18.90;99.90;;;;;;5296998;27;20515;-85
2024/04/09 07:31:33;;;;;;;11.03;7.90;;;19.10;99.90;;;;;;5296684;27;20459;-85
2024/04/09 07:33:58;;;;;;;11.00;9.00;;;19.20;99.90;;;;;;5293923;27;20468;-86
2024/04/09 07:36:27;;;;;;;7.57;6.43;;;19.30;99.90;;;;;;5293592;27;20508;-86
2024/04/09 07:38:54;;;;;;;9.27;7.53;;;19.40;99.90;;;;;;5288395;27;20945;-86
2024/04/09 07:41:23;;;;;;;9.20;8.20;;;19.40;99.90;;;;;;5282006;27;20534;-85
2024/04/09 07:43:55;;;;;;;12.23;8.03;;;;;;;;;;5281987;27;20829;-86
2024/04/09 07:46:24;;;;;;;11.37;7.50;;;19.50;99.90;;;;;;5284266;27;20530;-86
2024/04/09 07:48:50;;;;;;;9.60;8.50;;;19.70;99.90;;;;;;5283575;27;20522;-86
2024/04/09 07:51:18;;;;;;;8.30;6.77;;;19.80;99.90;;;;;;5289206;27;20461;-86
2024/04/09 07:53:45;;;;;;;7.33;6.50;;;19.80;99.90;;;;;;5292083;27;20476;-86
2024/04/09 07:56:15;;;;;;;6.97;6.23;;;19.90;99.90;;;;;;5295962;27;20500;-86
2024/04/09 07:58:41;;;;;;;7.50;6.63;;;19.90;99.90;;;;;;5292008;27;20447;-83
2024/04/09 08:01:12;;;;;;;11.00;6.17;;;20.00;99.90;;;;;;5294853;27;20548;-85
2024/04/09 08:03:38;;;;;;;6.00;5.40;;;20.10;85.70;;;;;;5291534;27;20464;-86
2024/04/09 08:06:06;;;;;;;7.00;6.10;;;20.20;99.90;;;;;;5293274;27;20487;-85
2024/04/09 08:08:32;;;;;;;7.40;6.57;;;20.30;99.90;;;;;;5300426;26;20213;-83
2024/04/09 08:11:03;;;;;;;7.97;6.60;;;20.30;99.90;;;;;;5301741;26;20515;-83
2024/04/09 08:13:29;;;;;;;11.17;7.03;;;20.40;45.30;;;;;;5301933;26;20517;-84
2024/04/09 08:15:58;;;;;;;7.13;6.13;;;20.40;35.00;;;;;;5300907;26;20456;-84
2024/04/09 08:18:27;;;;;;;6.80;6.20;;;20.60;35.20;;;;;;5291435;27;20448;-86
2024/04/09 08:20:56;;;;;;;5.80;5.27;;;20.60;44.80;;;;;;5291908;27;20546;-86
2024/04/09 08:23:24;;;;;;;7.97;5.90;;;20.70;26.40;;;;;;5288234;27;20471;-88
2024/04/09 08:29:40;;;;;;;6.40;5.90;;;21.50;99.90;;;;;;5248496;27;20460;-89
2024/04/09 08:32:31;;;;;;;10.63;6.00;;;21.00;36.70;;;;;;5297462;27;20507;-89
2024/04/09 08:36:05;;;;;;;6.10;5.50;;;21.10;99.90;;;;;;5301668;27;20507;-89
2024/04/09 08:39:03;;;;;;;7.07;5.63;;;21.10;99.90;;;;;;5208406;27;20467;-89
2024/04/09 08:45:19;;;;;;;7.30;6.37;;;20.40;99.90;;;;;;5237337;27;21037;-89
2024/04/09 08:48:17;;;;;;;6.70;5.80;;;21.50;98.90;;;;;;5153399;27;20601;-89
2024/04/09 08:51:45;;;;;;;6.87;5.67;;;21.60;99.90;;;;;;4998364;28;21057;-89
2024/04/09 08:54:42;;;;;;;7.30;6.60;;;21.60;99.90;;;;;;4992196;28;20529;-88
2024/04/09 09:03:05;;;;;;;6.07;5.47;;;22.00;96.60;;;;;;5301212;26;20522;-90
2024/04/09 09:05:41;;;;;;;9.43;5.40;;;22.10;99.90;;;;;;5293117;27;20467;-89
2024/04/09 09:08:10;;;;;;;13.57;6.17;;;22.20;99.90;;;;;;5286744;27;20467;-90
2024/04/09 09:10:53;;;;;;;11.30;5.40;;;22.20;99.90;;;;;;5288333;27;20894;-89
2024/04/09 09:13:25;;;;;;;9.97;5.57;;;;;;;;;;5289666;27;20947;-89
2024/04/09 09:15:55;;;;;;;12.07;6.30;;;;;;;;;;5288713;27;20452;-89
2024/04/09 09:18:30;;;;;;;9.80;5.67;;;22.50;1.00;;;;;;5290283;27;20571;-89
2024/04/09 09:21:03;;;;;;;7.80;4.97;;;22.50;55.60;;;;;;5287965;27;20494;-90
2024/04/09 09:23:32;;;;;;;8.80;5.30;;;22.40;1.00;;;;;;5285379;27;20525;-89
2024/04/09 09:26:11;;;;;;;5.30;4.20;;;22.40;99.90;;;;;;5284914;27;20448;-89
2024/04/09 09:28:51;;;;;;;16.87;5.20;;;22.50;99.90;;;;;;5286640;27;20463;-89
2024/04/09 09:31:18;;;;;;;7.03;5.30;;;22.80;99.90;;;;;;5285878;27;20417;-89
2024/04/09 09:33:54;;;;;;;9.97;6.30;;;22.70;99.90;;;;;;5285740;27;20520;-90
2024/04/09 09:36:21;;;;;;;6.10;4.97;;;22.90;99.90;;;;;;5284948;27;20880;-89
2024/04/09 09:38:53;;;;;;;8.03;5.67;;;;;;;;;;5285830;27;20452;-90
2024/04/09 09:44:10;;;;;;;8.47;5.23;;;;;;;;;;5251515;27;20533;-86
2024/04/09 09:46:36;;;;;;;6.23;4.97;;;22.90;99.90;;;;;;5249384;27;20566;-86
2024/04/09 09:49:06;;;;;;;5.63;4.80;;;22.90;99.90;;;;;;5249366;27;20510;-86
2024/04/09 09:51:32;;;;;;;6.70;5.10;;;23.00;99.90;;;;;;5254232;27;20510;-86
2024/04/09 09:54:01;;;;;;;5.83;4.40;;;23.20;99.90;;;;;;5262402;27;20519;-86
2024/04/09 09:56:29;;;;;;;18.20;11.70;;;23.20;99.90;;;;;;5257019;27;20455;-86
2024/04/09 09:58:59;;;;;;;7.53;6.63;;;;;;;;;;5249808;27;20463;-86
2024/04/09 10:01:29;;;;;;;8.73;5.60;;;;;;;;;;5249417;27;20454;-86
2024/04/09 10:03:57;;;;;;;10.10;5.47;;;23.30;99.90;;;;;;5249012;27;20466;-86
2024/04/09 10:06:28;;;;;;;7.90;6.13;;;;;;;;;;5256776;27;20467;-86
2024/04/09 10:08:59;;;;;;;7.13;4.80;;;23.30;99.90;;;;;;5258914;27;20504;-87
2024/04/09 10:11:25;;;;;;;12.37;5.30;;;23.40;99.90;;;;;;5257810;27;20442;-87
2024/04/09 10:13:54;;;;;;;11.47;4.70;;;23.60;99.90;;;;;;5252965;27;20510;-87
2024/04/09 10:16:23;;;;;;;8.07;5.13;;;;;;;;;;5253585;27;20233;-87
2024/04/09 10:18:55;;;;;;;8.50;4.60;;;23.20;99.90;;;;;;5252385;27;20469;-86
2024/04/09 10:21:29;;;;;;;13.80;5.60;;;;;;;;;;5256436;27;20872;-86
2024/04/09 10:24:01;;;;;;;6.47;5.00;;;23.30;99.90;;;;;;5268509;27;20459;-87
2024/04/09 10:26:29;;;;;;;12.13;4.37;;;;;;;;;;5263762;26;20581;-87
2024/04/09 10:29:08;;;;;;;10.50;5.00;;;;;;;;;;5253876;27;20464;-87
2024/04/09 10:31:43;;;;;;;7.10;5.17;;;;;;;;;;5254617;27;20410;-86
2024/04/09 10:34:26;;;;;;;12.83;5.10;;;;;;;;;;5256244;27;20463;-86
2024/04/09 10:36:52;;;;;;;5.50;4.43;;;;;;;;;;5269171;26;20541;-87
2024/04/09 10:39:24;;;;;;;8.17;4.60;;;23.90;99.90;;;;;;5269451;26;20504;-87
2024/04/09 10:41:57;;;;;;;10.43;4.90;;;;;;;;;;5261808;26;20467;-87
2024/04/09 10:44:28;;;;;;;5.83;4.80;;;24.00;99.90;;;;;;5254006;27;20504;-87
2024/04/09 10:46:54;;;;;;;6.27;5.10;;;24.00;99.90;;;;;;5251690;27;20459;-87
2024/04/09 10:49:27;;;;;;;12.17;4.47;;;;;;;;;;5253663;27;20523;-87
2024/04/09 10:51:54;;;;;;;7.00;5.63;;;;;;;;;;5263644;27;20479;-87
2024/04/09 10:54:23;;;;;;;8.87;5.20;;;24.10;99.90;;;;;;5265610;27;20468;-87
2024/04/09 10:56:59;;;;;;;5.70;4.93;;;;;;;;;;5266521;27;20513;-86
2024/04/09 10:59:28;;;;;;;7.73;5.50;;;;;;;;;;5268293;26;20468;-87
2024/04/09 11:01:57;;;;;;;7.33;5.87;;;24.10;99.90;;;;;;5267803;26;20513;-87
2024/04/09 11:04:29;;;;;;;8.53;5.03;;;;;;;;;;5266217;27;20457;-86
2024/04/09 11:06:58;;;;;;;10.83;4.90;;;24.30;99.90;;;;;;5256545;27;20472;-86
2024/04/09 11:09:28;;;;;;;9.20;4.50;;;;;;;;;;5257623;27;20443;-87
2024/04/09 11:11:57;;;;;;;5.77;4.80;;;;;;;;;;5260243;27;20469;-87
2024/04/09 11:14:27;;;;;;;10.23;4.73;;;;;;;;;;5252467;27;20464;-86
2024/04/09 11:16:57;;;;;;;7.30;4.77;;;24.60;99.90;;;;;;5252985;27;20457;-86
2024/04/09 11:19:29;;;;;;;7.00;5.33;;;;;;;;;;5251579;27;20521;-87
2024/04/09 11:21:55;;;;;;;5.27;4.77;;;24.90;99.90;;;;;;5250536;27;20875;-87
2024/04/09 11:24:24;;;;;;;10.03;4.70;;;24.90;99.90;;;;;;5251830;27;20513;-86
2024/04/09 11:26:50;;;;;;;15.00;5.10;;;25.00;89.00;;;;;;5249488;27;20543;-86
2024/04/09 11:29:24;;;;;;;6.73;4.30;;;;;;;;;;5249266;27;20473;-86
2024/04/09 11:31:50;;;;;;;3.90;3.60;;;24.80;99.90;;;;;;5249883;27;21035;-86
2024/04/09 11:34:30;;;;;;;6.30;4.60;;;25.10;99.90;;;;;;5249807;27;20543;-86
2024/04/09 11:36:58;;;;;;;10.87;6.10;;;;;;;;;;5250082;27;20528;-86
2024/04/09 11:39:28;;;;;;;8.17;5.80;;;;;;;;;;5250254;27;20477;-87
2024/04/09 11:41:54;;;;;;;8.50;4.83;;;25.10;99.90;;;;;;5249710;27;21085;-87
2024/04/09 11:44:23;;;;;;;8.37;5.57;;;25.20;96.90;;;;;;5249870;27;20502;-86
2024/04/09 11:46:51;;;;;;;15.30;5.73;;;;;;;;;;5249242;27;20457;-87
2024/04/09 11:49:21;;;;;;;8.00;5.03;;;;;;;;;;5249623;27;20457;-87
2024/04/09 11:51:51;;;;;;;9.33;6.03;;;;;;;;;;5261474;27;20528;-86
2024/04/09 11:54:21;;;;;;;9.23;6.00;;;;;;;;;;5265149;27;20457;-87
2024/04/09 11:56:50;;;;;;;6.57;5.43;;;;;;;;;;5253010;27;20502;-86
2024/04/09 11:59:20;;;;;;;8.37;4.73;;;;;;;;;;5251875;27;20588;-86
2024/04/09 12:01:48;;;;;;;10.03;5.50;;;;;;;;;;5251340;27;20469;-87
2024/04/09 12:04:20;;;;;;;13.00;4.80;;;25.40;99.90;;;;;;5251905;27;20473;-87
2024/04/09 12:06:47;;;;;;;14.10;6.43;;;;;;;;;;5251216;27;20854;-87
2024/04/09 12:09:19;;;;;;;10.37;6.70;;;;;;;;;;5250232;27;20529;-86
2024/04/09 12:11:47;;;;;;;13.50;5.60;;;;;;;;;;5255363;27;20565;-86
2024/04/09 12:14:17;;;;;;;11.73;5.30;;;;;;;;;;5263213;27;20461;-87
2024/04/09 12:16:45;;;;;;;16.07;6.30;;;;;;;;;;5264875;27;20546;-87
2024/04/09 12:19:15;;;;;;;11.10;5.10;;;;;;;;;;5267286;26;20507;-87
2024/04/09 12:21:42;;;;;;;7.20;4.50;;;;;;;;;;5263831;27;21062;-88
2024/04/09 12:24:12;;;;;;;11.73;5.80;;;;;;;;;;5259031;27;20926;-88
2024/04/09 12:26:45;;;;;;;16.90;6.30;;;;;;;;;;5258929;27;20501;-87
2024/04/09 12:29:15;;;;;;;13.70;6.00;;;;;;;;;;5260978;27;20531;-87
2024/04/09 12:31:43;;;;;;;14.37;7.43;;;;;;;;;;5261328;27;20477;-88
2024/04/09 12:34:13;;;;;;;9.17;6.00;;;;;;;;;;5257223;27;20466;-87
2024/04/09 12:36:40;;;;;;;15.43;6.20;;;;;;;;;;5256329;27;20458;-87
2024/04/09 12:39:10;;;;;;;11.50;7.30;;;;;;;;;;5258205;27;20555;-87
2024/04/09 12:41:38;;;;;;;9.57;5.40;;;;;;;;;;5263903;27;20470;-87
2024/04/09 12:44:11;;;;;;;13.10;5.20;;;;;;;;;;5262614;27;20547;-87
2024/04/09 12:46:39;;;;;;;20.53;13.07;;;;;;;;;;5252910;27;20848;-86
2024/04/09 12:49:08;;;;;;;22.47;12.80;;;;;;;;;;5252103;27;20513;-87
2024/04/09 12:51:37;;;;;;;17.37;11.90;;;;;;;;;;5251417;27;20522;-87
2024/04/09 12:54:07;;;;;;;9.50;7.00;;;;;;;;;;5250380;27;20457;-87
2024/04/09 12:56:36;;;;;;;9.83;6.53;;;;;;;;;;5254929;27;20524;-86
2024/04/09 12:59:05;;;;;;;12.47;6.63;;;;;;;;;;5264166;27;20572;-86
2024/04/09 13:01:35;;;;;;;9.13;6.13;;;;;;;;;;5263800;27;20465;-86
2024/04/09 13:04:05;;;;;;;8.50;5.40;;;;;;;;;;5251733;27;20477;-87
2024/04/09 13:06:33;;;;;;;10.67;6.20;;;;;;;;;;5250577;27;20985;-86
2024/04/09 13:09:04;;;;;;;13.73;6.97;;;;;;;;;;5251605;27;20867;-87
2024/04/09 13:11:31;;;;;;;13.70;7.10;;;;;;;;;;5251828;27;20418;-87
2024/04/09 13:14:01;;;;;;;16.50;6.20;;;;;;;;;;5252603;27;20934;-86
2024/04/09 13:16:30;;;;;;;10.27;6.63;;;;;;;;;;5253266;27;20473;-86
2024/04/09 13:19:03;;;;;;;9.17;6.17;;;;;;;;;;5264601;26;20508;-87
2024/04/09 13:21:31;;;;;;;17.17;6.30;;;;;;;;;;5269675;26;20505;-87
2024/04/09 13:24:01;;;;;;;11.70;6.27;;;;;;;;;;5259856;26;20461;-87
2024/04/09 13:26:28;;;;;;;15.27;6.97;;;;;;;;;;5254609;27;21046;-85
2024/04/09 13:28:59;;;;;;;19.70;6.10;;;;;;;;;;5261929;26;20473;-86
2024/04/09 13:31:27;;;;;;;16.80;5.40;;;;;;;;;;5253786;27;20521;-85